createdAt,value
2018-04-27T08:42:22.257Z,35744.00
2018-04-27T08:43:06.741Z,34400.00
2018-04-27T08:44:06.754Z,34976.00
2018-04-27T08:45:06.765Z,34048.00
2018-04-27T08:46:06.818Z,35520.00
2018-04-27T08:47:06.781Z,36960.00
2018-04-27T08:48:06.790Z,37120.00
2018-04-27T08:49:07.197Z,39520.00
2018-04-27T08:50:06.807Z,37152.00
2018-04-27T08:51:17.763Z,36672.00
2018-04-27T08:52:06.827Z,36128.00
2018-04-27T08:53:06.835Z,38720.00
2018-04-27T08:54:06.843Z,43424.00
2018-04-27T08:55:06.850Z,39168.00
2018-04-27T08:56:07.758Z,40928.00
2018-04-27T08:57:06.867Z,36128.00
2018-04-27T08:58:06.878Z,33728.00
2018-04-27T08:59:06.886Z,37344.00
2018-04-27T09:00:06.895Z,36704.00
2018-04-27T09:01:06.948Z,38656.00
2018-04-27T09:02:06.968Z,41504.00
2018-04-27T09:03:06.923Z,43872.00
2018-04-27T09:04:06.931Z,41920.00
2018-04-27T09:05:06.953Z,42496.00
2018-04-27T09:07:38.601Z,39040.00
2018-04-27T09:08:38.569Z,38496.00
2018-04-27T09:09:38.647Z,35232.00
2018-04-27T09:10:38.586Z,33792.00
2018-04-27T09:12:17.727Z,34240.00
2018-04-27T09:12:38.607Z,36544.00
2018-04-27T09:13:38.613Z,36192.00
2018-04-27T09:14:38.643Z,36736.00
2018-04-27T09:15:39.173Z,37824.00
2018-04-27T09:16:49.233Z,36032.00
2018-04-27T09:17:38.648Z,34688.00
2018-04-27T09:18:38.661Z,33280.00
2018-04-27T09:19:38.672Z,35520.00
2018-04-27T09:20:38.685Z,37312.00
2018-04-27T09:21:39.302Z,37408.00
2018-04-27T09:22:38.708Z,37472.00
2018-04-27T09:23:38.710Z,41472.00
2018-04-27T09:24:38.719Z,41760.00
2018-04-27T09:25:38.730Z,43456.00
2018-04-27T09:26:40.854Z,43616.00
2018-04-27T09:27:38.746Z,39712.00
2018-04-27T09:28:38.752Z,40128.00
2018-04-27T09:29:38.767Z,39680.00
2018-04-27T09:30:38.775Z,41216.00
2018-04-27T09:31:39.076Z,40800.00
2018-04-27T09:32:38.797Z,45472.00
2018-04-27T09:33:38.816Z,47904.00
2018-04-27T09:34:38.814Z,47200.00
2018-04-27T09:35:38.838Z,48928.00
2018-04-27T09:36:38.835Z,43648.00
2018-04-27T09:37:49.727Z,41792.00
2018-04-27T09:38:38.845Z,44448.00
2018-04-27T09:39:38.856Z,45088.00
2018-04-27T09:40:38.868Z,45216.00
2018-04-27T09:41:38.876Z,49664.00
2018-04-27T09:42:39.725Z,48352.00
2018-04-27T09:43:38.894Z,52128.00
2018-04-27T09:44:38.904Z,53888.00
2018-04-27T09:45:39.176Z,50688.00
2018-04-27T09:46:38.924Z,53408.00
2018-04-27T09:49:25.700Z,55072.00
2018-04-27T09:50:10.603Z,56320.00
2018-04-27T09:51:10.604Z,56032.00
2018-04-27T09:52:10.691Z,52448.00
2018-04-27T09:53:10.648Z,53152.00
2018-04-27T09:54:10.640Z,54848.00
2018-04-27T09:55:10.662Z,59776.00
2018-04-27T09:56:10.656Z,57376.00
2018-04-27T09:57:10.722Z,62592.00
2018-04-27T09:58:10.675Z,60544.00
2018-04-27T09:59:10.762Z,60640.00
2018-04-27T10:00:10.705Z,58752.00
2018-04-27T10:01:10.704Z,56800.00
2018-04-27T10:02:25.208Z,54752.00
2018-04-27T10:03:10.728Z,55392.00
2018-04-27T10:04:10.735Z,58752.00
2018-04-27T10:05:10.745Z,60992.00
2018-04-27T10:06:10.751Z,64544.00
2018-04-27T10:07:16.201Z,69408.00
2018-04-27T10:08:10.772Z,69088.00
2018-04-27T10:09:10.928Z,71392.00
2018-04-27T10:10:10.906Z,72672.00
2018-04-27T10:11:10.800Z,73984.00
2018-04-27T10:12:10.993Z,68160.00
2018-04-27T10:13:10.820Z,79264.00
2018-04-27T10:14:10.828Z,77952.00
2018-04-27T10:15:10.837Z,79008.00
2018-04-27T10:16:16.202Z,84608.00
2018-04-27T10:17:10.857Z,79648.00
2018-04-27T10:18:10.869Z,79008.00
2018-04-27T10:19:10.878Z,83840.00
2018-04-27T10:20:10.886Z,76896.00
2018-04-27T10:21:16.206Z,76128.00
2018-04-27T10:22:10.911Z,83776.00
2018-04-27T10:23:11.308Z,81024.00
2018-04-27T10:24:10.930Z,76704.00
2018-04-27T10:25:10.936Z,76800.00
2018-04-27T10:26:50.211Z,75200.00
2018-04-27T10:27:10.959Z,78496.00
2018-04-27T10:28:10.968Z,82368.00
2018-04-27T10:29:10.979Z,85184.00
2018-04-27T10:30:10.991Z,86208.00
2018-04-27T10:31:11.036Z,81472.00
2018-04-27T10:32:11.007Z,78016.00
2018-04-27T10:33:11.019Z,79008.00
2018-04-27T10:34:11.027Z,74592.00
2018-04-27T10:35:11.039Z,75936.00
2018-04-27T10:36:11.099Z,70144.00
2018-04-27T10:37:11.446Z,67392.00
2018-04-27T10:38:11.067Z,63136.00
2018-04-27T10:39:11.783Z,63904.00
2018-04-27T10:40:11.088Z,73600.00
2018-04-27T10:41:11.132Z,82592.00
2018-04-27T10:42:11.111Z,84224.00
2018-04-27T10:43:11.110Z,77824.00
2018-04-27T10:44:11.123Z,74880.00
2018-04-27T10:45:11.131Z,82848.00
2018-04-27T10:46:25.203Z,81216.00
2018-04-27T10:47:11.151Z,75200.00
2018-04-27T10:48:11.159Z,87200.00
2018-04-27T10:49:11.173Z,97440.00
2018-04-27T10:50:11.924Z,97408.00
2018-04-27T10:51:11.229Z,84864.00
2018-04-27T10:52:11.198Z,93664.00
2018-04-27T10:53:11.207Z,98560.00
2018-04-27T10:54:11.222Z,70816.00
2018-04-27T10:55:12.173Z,65312.00
2018-04-27T10:56:11.763Z,80448.00
2018-04-27T10:57:11.257Z,72416.00
2018-04-27T10:58:11.260Z,80160.00
2018-04-27T10:59:11.268Z,88128.00
2018-04-27T11:00:11.281Z,95232.00
2018-04-27T11:01:13.216Z,99968.00
2018-04-27T11:02:11.301Z,106720.00
2018-04-27T11:03:11.310Z,103360.00
2018-04-27T11:04:11.321Z,109792.00
2018-04-27T11:05:11.333Z,99392.00
2018-04-27T11:06:11.386Z,110336.00
2018-04-27T11:07:11.363Z,110528.00
2018-04-27T11:08:11.370Z,104320.00
2018-04-27T11:09:11.382Z,104704.00
2018-04-27T11:10:11.393Z,108576.00
2018-04-27T11:11:11.464Z,111552.00
2018-04-27T11:12:11.416Z,101376.00
2018-04-27T11:13:11.433Z,90560.00
2018-04-27T11:14:11.447Z,104704.00
2018-04-27T11:15:11.463Z,99776.00
2018-04-27T11:16:13.223Z,96704.00
2018-04-27T11:17:12.019Z,101696.00
2018-04-27T11:18:12.328Z,108544.00
2018-04-27T11:19:11.504Z,106144.00
2018-04-27T11:20:11.572Z,105152.00
2018-04-27T11:21:11.589Z,96864.00
2018-04-27T11:22:11.541Z,96736.00
2018-04-27T11:23:11.553Z,103648.00
2018-04-27T11:24:11.580Z,114688.00
2018-04-27T11:25:11.581Z,110496.00
2018-04-27T11:26:11.701Z,105952.00
2018-04-27T11:27:11.606Z,99488.00
2018-04-27T11:28:11.617Z,109120.00
2018-04-27T11:29:11.708Z,106368.00
2018-04-27T11:30:11.640Z,108256.00
2018-04-27T11:31:11.698Z,101952.00
2018-04-27T11:32:11.670Z,87872.00
2018-04-27T11:33:11.683Z,95360.00
2018-04-27T11:34:11.694Z,91872.00
2018-04-27T11:35:11.724Z,89728.00
2018-04-27T11:36:26.252Z,106336.00
2018-04-27T11:37:11.735Z,103904.00
2018-04-27T11:38:11.748Z,93536.00
2018-04-27T11:39:11.758Z,101632.00
2018-04-27T11:40:11.772Z,98336.00
2018-04-27T11:41:11.901Z,102880.00
2018-04-27T11:42:11.795Z,108096.00
2018-04-27T11:43:11.812Z,104736.00
2018-04-27T11:44:11.824Z,106944.00
2018-04-27T11:45:11.837Z,104224.00
2018-04-27T11:46:11.897Z,94688.00
2018-04-27T11:47:11.860Z,96864.00
2018-04-27T11:48:12.652Z,100256.00
2018-04-27T11:49:14.184Z,103008.00
2018-04-27T11:50:17.268Z,103776.00
2018-04-27T11:51:11.914Z,95872.00
2018-04-27T11:52:11.945Z,98656.00
2018-04-27T11:53:11.992Z,97152.00
2018-04-27T11:54:11.951Z,113728.00
2018-04-27T11:56:45.313Z,110976.00
2018-04-27T11:57:43.649Z,108672.00
2018-04-27T11:58:43.658Z,101024.00
2018-04-27T11:59:43.679Z,106848.00
2018-04-27T12:01:04.813Z,103968.00
2018-04-27T12:01:43.705Z,103072.00
2018-04-27T12:02:43.710Z,98208.00
2018-04-27T12:03:43.809Z,96576.00
2018-04-27T12:04:43.784Z,105536.00
2018-04-27T12:08:47.151Z,110848.00
2018-04-27T12:10:01.226Z,108320.00
2018-04-27T12:10:47.137Z,106496.00
2018-04-27T12:11:47.143Z,110112.00
2018-04-27T12:12:47.318Z,103904.00
2018-04-27T12:13:47.170Z,108224.00
2018-04-27T12:14:48.261Z,114464.00
2018-04-27T12:15:48.172Z,113504.00
2018-04-27T12:16:47.279Z,113216.00
2018-04-27T12:17:47.222Z,111456.00
2018-04-27T12:18:47.249Z,104800.00
2018-04-27T12:19:58.244Z,105088.00
2018-04-27T12:20:47.278Z,114464.00
2018-04-27T12:21:47.288Z,120320.00
2018-04-27T12:22:47.295Z,115232.00
2018-04-27T12:23:47.304Z,115936.00
2018-04-27T12:24:48.251Z,116160.00
2018-04-27T12:25:47.348Z,115872.00
2018-04-27T12:26:47.347Z,112000.00
2018-04-27T12:27:47.353Z,116128.00
2018-04-27T12:28:47.416Z,116608.00
2018-04-27T12:29:48.238Z,115872.00
2018-04-27T12:30:47.400Z,114208.00
2018-04-27T12:31:47.520Z,115264.00
2018-04-27T12:32:47.424Z,114848.00
2018-04-27T12:33:47.441Z,114848.00
2018-04-27T12:34:47.505Z,117888.00
2018-04-27T12:35:47.589Z,115200.00
2018-04-27T12:36:47.539Z,115616.00
2018-04-27T12:37:47.493Z,117568.00
2018-04-27T12:38:47.536Z,117248.00
2018-04-27T12:39:47.573Z,114048.00
2018-04-27T12:40:47.538Z,113088.00
2018-04-27T12:41:47.548Z,114016.00
2018-04-27T12:42:47.563Z,109344.00
2018-04-27T12:43:47.574Z,113376.00
2018-04-27T12:44:47.666Z,107712.00
2018-04-27T12:45:47.607Z,109472.00
2018-04-27T12:46:47.619Z,111232.00
2018-04-27T12:47:47.628Z,109376.00
2018-04-27T12:48:47.644Z,108608.00
2018-04-27T12:49:52.730Z,104704.00
2018-04-27T12:50:47.670Z,104928.00
2018-04-27T12:51:47.684Z,104480.00
2018-04-27T12:52:47.703Z,108416.00
2018-04-27T12:53:48.341Z,105088.00
2018-04-27T12:54:47.727Z,107360.00
2018-04-27T12:55:47.942Z,104704.00
2018-04-27T12:56:47.749Z,108480.00
2018-04-27T12:57:47.762Z,103840.00
2018-04-27T12:58:47.824Z,97632.00
2018-04-27T12:59:47.783Z,99232.00
2018-04-27T13:00:47.800Z,100928.00
2018-04-27T13:01:47.817Z,101376.00
2018-04-27T13:02:47.827Z,101440.00
2018-04-27T13:03:47.881Z,105376.00
2018-04-27T13:04:47.850Z,107456.00
2018-04-27T13:05:47.868Z,105216.00
2018-04-27T13:06:47.877Z,101952.00
2018-04-27T13:07:47.888Z,95936.00
2018-04-27T13:08:47.950Z,94368.00
2018-04-27T13:09:47.917Z,98368.00
2018-04-27T13:10:47.923Z,96608.00
2018-04-27T13:11:47.954Z,95200.00
2018-04-27T13:12:47.955Z,95168.00
2018-04-27T13:13:48.025Z,96320.00
2018-04-27T13:14:47.979Z,99488.00
2018-04-27T13:15:47.995Z,101440.00
2018-04-27T13:16:48.007Z,102368.00
2018-04-27T13:17:48.024Z,99776.00
2018-04-27T13:18:48.093Z,96672.00
2018-04-27T13:19:48.052Z,99360.00
2018-04-27T13:20:48.696Z,103264.00
2018-04-27T13:21:48.697Z,104512.00
2018-04-27T13:22:48.086Z,101536.00
2018-04-27T13:23:48.152Z,102240.00
2018-04-27T13:24:48.112Z,100864.00
2018-04-27T13:25:48.132Z,102208.00
2018-04-27T13:26:48.144Z,100864.00
2018-04-27T13:27:48.151Z,97568.00
2018-04-27T13:28:48.261Z,96352.00
2018-04-27T13:29:48.180Z,96288.00
2018-04-27T13:30:49.118Z,93408.00
2018-04-27T13:31:48.205Z,92032.00
2018-04-27T13:32:48.216Z,95104.00
2018-04-27T13:33:50.242Z,93632.00
2018-04-27T13:34:48.242Z,90112.00
2018-04-27T13:35:48.899Z,88096.00
2018-04-27T13:36:48.265Z,89248.00
2018-04-27T13:37:48.280Z,90688.00
2018-04-27T13:38:48.356Z,91040.00
2018-04-27T13:39:48.325Z,91072.00
2018-04-27T13:40:48.325Z,92416.00
2018-04-27T13:41:48.463Z,91584.00
2018-04-27T13:42:48.470Z,90624.00
2018-04-27T13:43:48.383Z,90016.00
2018-04-27T13:44:48.370Z,92928.00
2018-04-27T13:45:48.372Z,94016.00
2018-04-27T13:46:48.387Z,91424.00
2018-04-27T13:47:48.444Z,88096.00
2018-04-27T13:48:48.415Z,93664.00
2018-04-27T13:49:48.493Z,92448.00
2018-04-27T13:50:48.431Z,88512.00
2018-04-27T13:51:48.446Z,86720.00
2018-04-27T13:52:48.760Z,85696.00
2018-04-27T13:53:48.468Z,87776.00
2018-04-27T13:54:48.480Z,89408.00
2018-04-27T13:55:48.482Z,90272.00
2018-04-27T13:56:48.501Z,87648.00
2018-04-27T13:57:56.300Z,83936.00
2018-04-27T13:58:48.526Z,80320.00
2018-04-27T13:59:48.538Z,83840.00
2018-04-27T14:00:48.549Z,87840.00
2018-04-27T14:01:48.558Z,91520.00
2018-04-27T14:02:48.654Z,88288.00
2018-04-27T14:03:48.773Z,87456.00
2018-04-27T14:04:48.599Z,86400.00
2018-04-27T14:05:48.612Z,86528.00
2018-04-27T14:06:48.615Z,83136.00
2018-04-27T14:07:49.515Z,82720.00
2018-04-27T14:08:48.691Z,81696.00
2018-04-27T14:09:48.689Z,76832.00
2018-04-27T14:10:48.667Z,69760.00
2018-04-27T14:11:48.687Z,77216.00
2018-04-27T14:12:59.275Z,81056.00
2018-04-27T14:13:48.702Z,81056.00
2018-04-27T14:14:48.714Z,82240.00
2018-04-27T14:15:48.723Z,84736.00
2018-04-27T14:16:48.732Z,73440.00
2018-04-27T14:17:56.889Z,79136.00
2018-04-27T14:18:48.755Z,78432.00
2018-04-27T14:19:48.768Z,75392.00
2018-04-27T14:20:48.780Z,69664.00
2018-04-27T14:21:48.789Z,70656.00
2018-04-27T14:22:48.810Z,77376.00
2018-04-27T14:23:52.290Z,79328.00
2018-04-27T14:24:48.822Z,80448.00
2018-04-27T14:25:48.832Z,81920.00
2018-04-27T14:26:48.886Z,81664.00
2018-04-27T14:27:48.851Z,78400.00
2018-04-27T14:28:59.781Z,76736.00
2018-04-27T14:29:48.873Z,75328.00
2018-04-27T14:30:48.881Z,74720.00
2018-04-27T14:31:48.892Z,70848.00
2018-04-27T14:32:48.902Z,71200.00
2018-04-27T14:33:50.804Z,68768.00
2018-04-27T14:34:48.929Z,71872.00
2018-04-27T14:35:48.936Z,73280.00
2018-04-27T14:36:48.946Z,76896.00
2018-04-27T14:37:48.955Z,72768.00
2018-04-27T14:38:49.024Z,69248.00
2018-04-27T14:39:48.975Z,73248.00
2018-04-27T14:40:48.987Z,73792.00
2018-04-27T14:41:49.090Z,75424.00
2018-04-27T14:42:49.011Z,75520.00
2018-04-27T14:43:50.852Z,72384.00
2018-04-27T14:44:49.080Z,72704.00
2018-04-27T14:45:49.041Z,76352.00
2018-04-27T14:46:49.730Z,74080.00
2018-04-27T14:47:49.058Z,70912.00
2018-04-27T14:48:49.783Z,73664.00
2018-04-27T14:49:49.076Z,72576.00
2018-04-27T14:50:49.087Z,72000.00
2018-04-27T14:51:49.134Z,71328.00
2018-04-27T14:52:49.558Z,68832.00
2018-04-27T14:53:49.225Z,78496.00
2018-04-27T14:54:49.124Z,76992.00
2018-04-27T14:55:49.617Z,77472.00
2018-04-27T14:56:49.141Z,74656.00
2018-04-27T14:57:49.581Z,77696.00
2018-04-27T14:58:49.281Z,76864.00
2018-04-27T14:59:49.178Z,75264.00
2018-04-27T15:00:49.184Z,73248.00
2018-04-27T15:01:49.194Z,71392.00
2018-04-27T15:02:49.207Z,72640.00
2018-04-27T15:05:20.959Z,74976.00
2018-04-27T15:06:20.915Z,74400.00
2018-04-27T15:07:20.923Z,72512.00
2018-04-27T15:08:34.987Z,66624.00
2018-04-27T15:09:20.940Z,64704.00
2018-04-27T15:10:20.951Z,66944.00
2018-04-27T15:11:20.956Z,66528.00
2018-04-27T15:12:20.967Z,59680.00
2018-04-27T15:13:35.479Z,60512.00
2018-04-27T15:14:20.987Z,61280.00
2018-04-27T15:15:20.999Z,63392.00
2018-04-27T15:16:21.008Z,63616.00
2018-04-27T15:17:21.014Z,57152.00
2018-04-27T15:18:21.145Z,52864.00
2018-04-27T15:19:35.498Z,56448.00
2018-04-27T15:20:21.047Z,61824.00
2018-04-27T15:21:21.053Z,42720.00
2018-04-27T15:22:21.066Z,58848.00
2018-04-27T15:23:56.486Z,62016.00
2018-04-27T15:24:21.764Z,61248.00
2018-04-27T15:25:21.244Z,61408.00
2018-04-27T15:26:21.093Z,61440.00
2018-04-27T15:27:21.105Z,62336.00
2018-04-27T15:28:21.113Z,61344.00
2018-04-27T15:29:21.164Z,60256.00
2018-04-27T15:30:21.136Z,60064.00
2018-04-27T15:31:21.145Z,55712.00
2018-04-27T15:32:21.150Z,56640.00
2018-04-27T15:33:21.161Z,60736.00
2018-04-27T15:35:52.939Z,53760.00
2018-04-27T15:36:52.867Z,55264.00
2018-04-27T15:37:52.872Z,57856.00
2018-04-27T15:38:53.441Z,56384.00
2018-04-27T15:39:52.891Z,52192.00
2018-04-27T15:40:52.897Z,51616.00
2018-04-27T15:41:52.901Z,52320.00
2018-04-27T15:42:52.914Z,49280.00
2018-04-27T15:43:56.449Z,47968.00
2018-04-27T15:44:52.925Z,48192.00
2018-04-27T15:45:52.941Z,44512.00
2018-04-27T15:46:52.947Z,42560.00
2018-04-27T15:47:52.957Z,44448.00
2018-04-27T15:48:53.008Z,42880.00
2018-04-27T15:49:53.098Z,43168.00
2018-04-27T15:50:52.976Z,33952.00
2018-04-27T15:51:52.983Z,21344.00
2018-04-27T15:52:52.989Z,30592.00
2018-04-27T15:54:16.586Z,41344.00
2018-04-27T15:54:53.086Z,46720.00
2018-04-27T15:55:53.250Z,42624.00
2018-04-27T15:56:53.028Z,41216.00
2018-04-27T15:57:53.042Z,44000.00
2018-04-27T15:58:53.035Z,44768.00
2018-04-27T15:59:54.941Z,43808.00
2018-04-27T16:00:53.048Z,29248.00
2018-04-27T16:01:53.056Z,25440.00
2018-04-27T16:02:53.066Z,21440.00
2018-04-27T16:03:53.073Z,25888.00
2018-04-27T16:04:53.119Z,18112.00
2018-04-27T16:05:53.090Z,16124.00
2018-04-27T16:06:53.090Z,15392.00
2018-04-27T16:07:53.095Z,17344.00
2018-04-27T16:08:53.435Z,19168.00
2018-04-27T16:09:53.112Z,20352.00
2018-04-27T16:10:53.116Z,21568.00
2018-04-27T16:11:53.124Z,22176.00
2018-04-27T16:12:53.132Z,23168.00
2018-04-27T16:13:54.940Z,29024.00
2018-04-27T16:14:53.224Z,26432.00
2018-04-27T16:15:53.149Z,26848.00
2018-04-27T16:16:53.153Z,24800.00
2018-04-27T16:17:53.153Z,21792.00
2018-04-27T16:18:53.222Z,21152.00
2018-04-27T16:19:53.170Z,20064.00
2018-04-27T16:20:53.188Z,20832.00
2018-04-27T16:21:53.183Z,23168.00
2018-04-27T16:22:53.194Z,24928.00
2018-04-27T16:23:56.443Z,31936.00
2018-04-27T16:24:53.200Z,30208.00
2018-04-27T16:25:53.202Z,29600.00
2018-04-27T16:26:53.208Z,28704.00
2018-04-27T16:27:53.214Z,25664.00
2018-04-27T16:28:53.285Z,28544.00
2018-04-27T16:29:53.225Z,27008.00
2018-04-27T16:30:53.229Z,28192.00
2018-04-27T16:31:53.236Z,28192.00
2018-04-27T16:32:53.240Z,29760.00
2018-04-27T16:33:54.944Z,29088.00
2018-04-27T16:34:53.268Z,27584.00
2018-04-27T16:35:53.263Z,25568.00
2018-04-27T16:36:53.268Z,24000.00
2018-04-27T16:37:53.268Z,22432.00
2018-04-27T16:38:53.330Z,16864.00
2018-04-27T16:39:53.281Z,13376.00
2018-04-27T16:40:53.299Z,10180.00
2018-04-27T16:41:53.369Z,9892.00
2018-04-27T16:42:53.297Z,9524.00
2018-04-27T16:43:53.734Z,8944.00
2018-04-27T16:44:53.309Z,8432.00
2018-04-27T16:45:53.895Z,8140.00
2018-04-27T16:46:53.317Z,8012.00
2018-04-27T16:47:53.326Z,8012.00
2018-04-27T16:50:24.967Z,7716.00
2018-04-27T16:51:25.884Z,7528.00
2018-04-27T16:52:24.931Z,7376.00
2018-04-27T16:53:24.935Z,7252.00
2018-04-27T16:57:33.367Z,6716.00
2018-04-27T16:58:28.245Z,6644.00
2018-04-27T17:03:00.171Z,7248.00
2018-04-27T17:03:31.548Z,6960.00
2018-04-27T17:04:31.725Z,6668.00
2018-04-27T17:05:31.568Z,6624.00
2018-04-27T17:06:31.572Z,6344.00
2018-04-27T17:07:31.580Z,6048.00
2018-04-27T17:08:31.587Z,6060.00
2018-04-27T17:09:31.628Z,5820.00
2018-04-27T17:10:31.639Z,5552.00
2018-04-27T17:11:31.599Z,5448.00
2018-04-27T17:12:31.609Z,5568.00
2018-04-27T17:13:31.699Z,5840.00
2018-04-27T17:14:31.613Z,6300.00
2018-04-27T17:15:31.667Z,6632.00
2018-04-27T17:16:31.612Z,6540.00
2018-04-27T17:17:31.629Z,6284.00
2018-04-27T17:18:31.623Z,5940.00
2018-04-27T17:19:31.625Z,5328.00
2018-04-27T17:20:31.674Z,4712.00
2018-04-27T17:21:31.634Z,4424.00
2018-04-27T17:22:31.686Z,4356.00
2018-04-27T17:23:31.643Z,4264.00
2018-04-27T17:24:31.643Z,3992.00
2018-04-27T17:25:31.763Z,3796.00
2018-04-27T17:26:31.770Z,3652.00
2018-04-27T17:27:31.660Z,3524.00
2018-04-27T17:28:31.746Z,3404.00
2018-04-27T17:29:31.672Z,3316.00
2018-04-27T17:30:31.715Z,3248.00
2018-04-27T17:32:31.788Z,3132.00
2018-04-27T17:33:31.751Z,3104.00
2018-04-27T17:34:31.696Z,3088.00
2018-04-27T17:35:39.768Z,3104.00
2018-04-27T17:36:31.706Z,3112.00
2018-04-27T17:37:31.692Z,3112.00
2018-04-27T17:38:31.797Z,3136.00
2018-04-27T17:39:31.697Z,3176.00
2018-04-27T17:40:50.956Z,3264.00
2018-04-27T17:41:31.699Z,3388.00
2018-04-27T17:42:32.462Z,3436.00
2018-04-27T17:43:31.778Z,3480.00
2018-04-27T17:44:31.787Z,3528.00
2018-04-27T17:45:40.535Z,3528.00
2018-04-27T17:46:32.545Z,3452.00
2018-04-27T17:47:31.817Z,3404.00
2018-04-27T17:48:31.719Z,3356.00
2018-04-27T17:49:31.751Z,3264.00
2018-04-27T17:50:32.221Z,3144.00
2018-04-27T17:51:32.458Z,3004.00
2018-04-27T17:52:31.752Z,2868.00
2018-04-27T17:53:32.496Z,2728.00
2018-04-27T17:54:31.735Z,2612.00
2018-04-27T17:55:31.982Z,2540.00
2018-04-27T17:56:31.796Z,2444.00
2018-04-27T17:57:32.609Z,2328.00
2018-04-27T17:58:32.461Z,2248.00
2018-04-27T17:59:33.616Z,2184.00
2018-04-27T18:00:31.799Z,2120.00
2018-04-27T18:01:32.254Z,2072.00
2018-04-27T18:02:31.865Z,2028.00
2018-04-27T18:03:31.832Z,1988.00
2018-04-27T18:04:31.772Z,1952.00
2018-04-27T18:05:31.785Z,1912.00
2018-04-27T18:06:32.633Z,1860.00
2018-04-27T18:07:31.841Z,1792.00
2018-04-27T18:08:31.790Z,1716.00
2018-04-27T18:09:32.461Z,1616.00
2018-04-27T18:10:31.898Z,1500.00
2018-04-27T18:11:31.819Z,1388.00
2018-04-27T18:12:31.836Z,1284.00
2018-04-27T18:13:31.907Z,1184.00
2018-04-27T18:14:36.961Z,1088.00
2018-04-27T18:15:37.461Z,1004.00
2018-04-27T18:16:33.693Z,924.00
2018-04-27T18:17:32.636Z,852.00
2018-04-27T18:18:35.623Z,788.00
2018-04-27T18:19:31.804Z,724.00
2018-04-27T18:20:31.798Z,664.00
2018-04-27T18:21:31.977Z,612.00
2018-04-27T18:22:31.793Z,564.00
2018-04-27T18:23:31.797Z,520.00
2018-04-27T18:24:31.807Z,480.00
2018-04-27T18:25:31.845Z,440.00
2018-04-27T18:26:32.657Z,396.00
2018-04-27T18:27:31.923Z,360.00
2018-04-27T18:28:31.807Z,328.00
2018-04-27T18:29:31.811Z,300.00
2018-04-27T18:30:31.815Z,276.00
2018-04-27T18:31:31.819Z,256.00
2018-04-27T18:32:31.979Z,236.00
2018-04-27T18:33:31.823Z,216.00
2018-04-27T18:34:31.820Z,200.00
2018-04-27T18:35:31.896Z,176.00
2018-04-27T18:36:31.826Z,156.00
2018-04-27T18:37:31.935Z,136.00
2018-04-27T18:38:31.829Z,120.00
2018-04-27T18:39:31.828Z,108.00
2018-04-27T18:40:31.830Z,92.00
2018-04-27T18:41:31.828Z,80.00
2018-04-27T18:42:31.966Z,68.00
2018-04-27T18:43:31.833Z,60.00
2018-04-27T18:44:31.908Z,52.00
2018-04-27T18:45:31.834Z,44.00
2018-04-27T18:46:31.978Z,40.00
2018-04-27T18:47:31.877Z,36.00
2018-04-27T18:48:31.837Z,28.00
2018-04-27T18:49:31.837Z,28.00
2018-04-27T18:50:31.841Z,24.00
2018-04-27T18:51:31.836Z,16.00
2018-04-27T18:52:52.877Z,16.00
2018-04-27T18:53:31.831Z,12.00
2018-04-27T18:54:31.842Z,8.00
2018-04-27T18:55:31.838Z,12.00
2018-04-27T18:56:31.834Z,8.00
2018-04-27T18:57:31.881Z,4.00
2018-04-27T18:58:31.833Z,4.00
2018-04-27T18:59:31.838Z,4.00
2018-04-27T19:00:31.838Z,4.00
2018-04-27T19:01:31.840Z,4.00
2018-04-27T19:02:32.866Z,0.00
2018-04-27T19:03:31.836Z,4.00
2018-04-27T19:04:31.840Z,4.00
2018-04-27T19:05:31.843Z,0.00
2018-04-27T19:06:31.839Z,0.00
2018-04-27T19:07:31.899Z,0.00
2018-04-27T19:08:31.840Z,0.00
2018-04-27T19:09:31.838Z,0.00
2018-04-27T19:10:31.863Z,0.00
2018-04-27T19:11:31.848Z,0.00
2018-04-27T19:12:31.891Z,0.00
2018-04-27T19:13:31.840Z,0.00
2018-04-27T19:14:32.170Z,0.00
2018-04-27T19:15:31.839Z,0.00
2018-04-27T19:16:31.841Z,0.00
2018-04-27T19:17:32.696Z,0.00
2018-04-27T19:18:31.841Z,0.00
2018-04-27T19:19:31.845Z,0.00
2018-04-27T19:20:31.843Z,0.00
2018-04-27T19:21:31.840Z,0.00
2018-04-27T19:23:00.861Z,0.00
2018-04-27T19:23:31.842Z,0.00
2018-04-27T19:24:31.839Z,0.00
2018-04-27T19:25:31.850Z,0.00
2018-04-27T19:26:31.846Z,0.00
2018-04-27T19:27:32.188Z,0.00
2018-04-27T19:28:31.844Z,0.00
2018-04-27T19:29:31.915Z,0.00
2018-04-27T19:30:31.841Z,0.00
2018-04-27T19:31:31.841Z,0.00
2018-04-27T19:32:52.888Z,0.00
2018-04-27T19:33:31.834Z,0.00
2018-04-27T19:34:31.840Z,0.00
2018-04-27T19:35:31.837Z,0.00
2018-04-27T19:36:31.837Z,0.00
2018-04-27T19:37:31.966Z,0.00
2018-04-27T19:38:31.835Z,0.00
2018-04-27T19:39:31.838Z,0.00
2018-04-27T19:40:31.834Z,0.00
2018-04-27T19:41:31.832Z,0.00
2018-04-27T19:42:31.893Z,0.00
2018-04-27T19:43:31.990Z,0.00
2018-04-27T19:44:31.835Z,0.00
2018-04-27T19:45:31.835Z,0.00
2018-04-27T19:46:31.832Z,0.00
2018-04-27T19:47:50.187Z,0.00
2018-04-27T19:48:31.832Z,0.00
2018-04-27T19:49:31.827Z,0.00
2018-04-27T19:50:31.848Z,0.00
2018-04-27T19:51:31.828Z,0.00
2018-04-27T19:52:33.694Z,0.00
2018-04-27T19:53:31.832Z,0.00
2018-04-27T19:54:31.828Z,0.00
2018-04-27T19:55:31.828Z,0.00
2018-04-27T19:56:31.830Z,0.00
2018-04-27T19:57:31.879Z,0.00
2018-04-27T19:58:31.829Z,0.00
2018-04-27T19:59:31.829Z,0.00
2018-04-27T20:00:31.819Z,0.00
2018-04-27T20:01:31.821Z,0.00
2018-04-27T20:02:32.201Z,0.00
2018-04-27T20:03:31.818Z,0.00
2018-04-27T20:04:31.824Z,0.00
2018-04-27T20:05:31.824Z,0.00
2018-04-27T20:06:31.817Z,0.00
2018-04-27T20:07:33.445Z,0.00
2018-04-27T20:08:31.903Z,0.00
2018-04-27T20:09:31.818Z,0.00
2018-04-27T20:10:31.822Z,0.00
2018-04-27T20:11:31.816Z,0.00
2018-04-27T20:12:50.185Z,0.00
2018-04-27T20:13:31.814Z,0.00
2018-04-27T20:14:31.819Z,0.00
2018-04-27T20:15:31.806Z,0.00
2018-04-27T20:16:31.814Z,0.00
2018-04-27T20:17:32.683Z,0.00
2018-04-27T20:18:31.889Z,0.00
2018-04-27T20:19:31.807Z,0.00
2018-04-27T20:20:31.808Z,0.00
2018-04-27T20:21:31.809Z,0.00
2018-04-27T20:22:33.695Z,0.00
2018-04-27T20:23:31.807Z,0.00
2018-04-27T20:24:31.804Z,0.00
2018-04-27T20:25:31.800Z,0.00
2018-04-27T20:26:31.800Z,0.00
2018-04-27T20:27:40.664Z,0.00
2018-04-27T20:28:31.799Z,0.00
2018-04-27T20:29:31.861Z,0.00
2018-04-27T20:30:32.672Z,0.00
2018-04-27T20:31:31.796Z,0.00
2018-04-27T20:32:32.232Z,0.00
2018-04-27T20:33:31.865Z,0.00
2018-04-27T20:34:31.798Z,0.00
2018-04-27T20:35:31.791Z,0.00
2018-04-27T20:36:31.793Z,0.00
2018-04-27T20:37:31.786Z,0.00
2018-04-27T20:38:56.187Z,0.00
2018-04-27T20:39:31.788Z,0.00
2018-04-27T20:40:32.368Z,0.00
2018-04-27T20:41:31.785Z,0.00
2018-04-27T20:42:53.689Z,0.00
2018-04-27T20:43:31.785Z,0.00
2018-04-27T20:44:31.782Z,0.00
2018-04-27T20:45:31.785Z,0.00
2018-04-27T20:46:31.778Z,0.00
2018-04-27T20:47:32.462Z,0.00
2018-04-27T20:48:32.735Z,0.00
2018-04-27T20:49:31.782Z,0.00
2018-04-27T20:50:31.774Z,0.00
2018-04-27T20:51:31.772Z,0.00
2018-04-27T20:52:37.191Z,0.00
2018-04-27T20:53:31.774Z,0.00
2018-04-27T20:54:31.770Z,0.00
2018-04-27T20:55:31.779Z,0.00
2018-04-27T20:56:31.767Z,0.00
2018-04-27T20:57:31.825Z,0.00
2018-04-27T20:58:31.772Z,0.00
2018-04-27T20:59:31.771Z,0.00
2018-04-27T21:00:31.763Z,0.00
2018-04-27T21:01:31.767Z,0.00
2018-04-27T21:02:33.689Z,0.00